createdAt,value
2023-02-24T00:02:06.326Z,92.97
2023-02-24T00:04:39.900Z,92.31
2023-02-24T00:07:12.874Z,91.20
2023-02-24T00:09:40.445Z,92.09
2023-02-24T00:12:13.139Z,92.56
2023-02-24T00:14:45.312Z,92.52
2023-02-24T00:17:16.589Z,91.45
2023-02-24T00:19:46.449Z,90.78
2023-02-24T00:22:13.745Z,90.19
2023-02-24T00:24:41.053Z,91.40
2023-02-24T00:27:08.381Z,91.91
2023-02-24T00:29:40.438Z,91.16
2023-02-24T00:32:12.818Z,91.35
2023-02-24T00:34:41.359Z,91.61
2023-02-24T00:37:09.161Z,91.25
2023-02-24T00:39:41.384Z,91.99
2023-02-24T00:42:11.807Z,91.41
2023-02-24T00:44:45.060Z,92.17
2023-02-24T00:47:13.520Z,91.91
2023-02-24T00:49:43.233Z,92.95
2023-02-24T00:52:14.483Z,92.55
2023-02-24T00:54:43.731Z,92.73
2023-02-24T00:57:12.207Z,93.47
2023-02-24T00:59:40.434Z,93.08
2023-02-24T01:02:08.206Z,92.25
2023-02-24T01:04:37.834Z,92.32
2023-02-24T01:07:10.963Z,92.67
2023-02-24T01:09:41.607Z,93.51
2023-02-24T01:12:22.554Z,95.44
2023-02-24T01:14:53.146Z,95.51
2023-02-24T01:17:21.932Z,96.99
2023-02-24T01:19:50.431Z,97.55
2023-02-24T01:22:20.201Z,98.79
2023-02-24T01:24:47.583Z,100.00
2023-02-24T01:27:19.136Z,100.00
2023-02-24T01:29:50.127Z,100.00
2023-02-24T01:32:20.968Z,100.00
2023-02-24T01:34:52.262Z,100.00
2023-02-24T01:37:20.641Z,100.00
2023-02-24T01:39:48.738Z,100.00
2023-02-24T01:42:21.714Z,100.00
2023-02-24T01:44:49.059Z,100.00
2023-02-24T01:47:21.443Z,100.00
2023-02-24T01:49:54.717Z,100.00
2023-02-24T01:52:34.520Z,100.00
2023-02-24T01:55:24.118Z,100.00
2023-02-24T01:57:53.852Z,100.00
2023-02-24T02:00:45.246Z,100.00
2023-02-24T02:03:33.894Z,100.00
2023-02-24T02:06:13.189Z,100.00
2023-02-24T02:08:42.605Z,100.00
2023-02-24T02:11:15.179Z,100.00
2023-02-24T02:13:45.746Z,100.00
2023-02-24T02:16:49.572Z,100.00
2023-02-24T02:19:48.763Z,100.00
2023-02-24T02:22:54.723Z,100.00
2023-02-24T02:25:27.530Z,100.00
2023-02-24T02:28:00.852Z,100.00
2023-02-24T02:30:59.499Z,100.00
2023-02-24T02:33:55.054Z,100.00
2023-02-24T02:37:12.440Z,100.00
2023-02-24T02:39:58.925Z,100.00
2023-02-24T02:42:47.197Z,100.00
2023-02-24T02:45:47.816Z,100.00
2023-02-24T02:48:25.688Z,100.00
2023-02-24T02:51:04.365Z,100.00
2023-02-24T02:54:00.676Z,100.00
2023-02-24T02:56:42.681Z,100.00
2023-02-24T02:59:14.893Z,100.00
2023-02-24T03:01:44.086Z,100.00
2023-02-24T03:04:17.237Z,100.00
2023-02-24T03:07:03.200Z,100.00
2023-02-24T03:09:36.620Z,100.00
2023-02-24T03:12:10.610Z,100.00
2023-02-24T03:14:46.146Z,100.00
2023-02-24T03:17:23.017Z,100.00
2023-02-24T03:20:12.328Z,100.00
2023-02-24T03:23:16.882Z,100.00
2023-02-24T03:25:58.893Z,100.00
2023-02-24T03:28:41.868Z,100.00
2023-02-24T03:31:39.814Z,100.00
2023-02-24T03:34:19.319Z,100.00
2023-02-24T03:36:48.126Z,100.00
2023-02-24T03:39:16.965Z,100.00
2023-02-24T03:42:19.043Z,100.00
2023-02-24T03:44:48.677Z,100.00
2023-02-24T03:47:17.721Z,100.00
2023-02-24T03:49:45.410Z,100.00
2023-02-24T03:53:01.638Z,100.00
2023-02-24T03:56:10.562Z,100.00
2023-02-24T03:59:13.689Z,100.00
2023-02-24T04:02:15.926Z,100.00
2023-02-24T04:05:22.052Z,100.00
2023-02-24T04:08:05.657Z,100.00
2023-02-24T04:11:24.291Z,100.00
2023-02-24T04:14:02.427Z,100.00
2023-02-24T04:16:54.165Z,100.00
2023-02-24T04:19:27.838Z,100.00
2023-02-24T04:21:56.377Z,100.00
2023-02-24T04:24:31.019Z,100.00
2023-02-24T04:27:01.961Z,100.00
2023-02-24T04:29:38.937Z,100.00
2023-02-24T04:32:11.634Z,100.00
2023-02-24T04:34:40.898Z,100.00
2023-02-24T04:37:09.163Z,100.00
2023-02-24T04:39:39.517Z,100.00
2023-02-24T04:42:14.212Z,100.00
2023-02-24T04:44:42.888Z,100.00
2023-02-24T04:47:12.294Z,100.00
2023-02-24T04:49:41.241Z,100.00
2023-02-24T04:52:09.491Z,100.00
2023-02-24T04:54:37.856Z,100.00
2023-02-24T04:57:08.306Z,100.00
2023-02-24T04:59:38.151Z,100.00
2023-02-24T05:02:05.299Z,100.00
2023-02-24T05:04:38.959Z,100.00
2023-02-24T05:07:06.391Z,100.00
2023-02-24T05:09:33.574Z,100.00
2023-02-24T05:12:00.864Z,100.00
2023-02-24T05:14:28.245Z,100.00
2023-02-24T05:17:00.458Z,100.00
2023-02-24T05:19:47.089Z,100.00
2023-02-24T05:22:39.868Z,100.00
2023-02-24T05:25:08.348Z,100.00
2023-02-24T05:27:39.031Z,100.00
2023-02-24T05:30:09.825Z,100.00
2023-02-24T05:32:38.273Z,100.00
2023-02-24T05:35:06.189Z,100.00
2023-02-24T05:37:39.001Z,100.00
2023-02-24T05:40:10.179Z,100.00
2023-02-24T05:42:37.323Z,100.00
2023-02-24T05:45:05.674Z,100.00
2023-02-24T05:47:32.813Z,100.00
2023-02-24T05:50:00.151Z,100.00
2023-02-24T05:52:27.623Z,100.00
2023-02-24T05:54:55.240Z,100.00
2023-02-24T05:57:25.059Z,100.00
2023-02-24T05:59:53.210Z,100.00
2023-02-24T06:02:27.751Z,100.00
2023-02-24T06:04:55.799Z,100.00
2023-02-24T06:07:28.357Z,100.00
2023-02-24T06:09:58.954Z,100.00
2023-02-24T06:12:33.856Z,100.00
2023-02-24T06:15:07.650Z,100.00
2023-02-24T06:17:35.296Z,100.00
2023-02-24T06:20:13.348Z,100.00
2023-02-24T06:22:42.592Z,100.00
2023-02-24T06:25:12.160Z,100.00
2023-02-24T06:27:39.523Z,100.00
2023-02-24T06:30:10.434Z,100.00
2023-02-24T06:32:38.162Z,100.00
2023-02-24T06:35:06.187Z,100.00
2023-02-24T06:37:34.482Z,100.00
2023-02-24T06:40:01.682Z,100.00
2023-02-24T06:42:29.175Z,100.00
2023-02-24T06:44:56.588Z,100.00
2023-02-24T06:47:23.894Z,100.00
2023-02-24T06:49:51.608Z,100.00
2023-02-24T06:52:19.798Z,100.00
2023-02-24T06:54:49.576Z,100.00
2023-02-24T06:57:17.161Z,100.00
2023-02-24T06:59:46.274Z,100.00
2023-02-24T07:02:13.710Z,100.00
2023-02-24T07:04:44.280Z,100.00
2023-02-24T07:07:14.479Z,100.00
2023-02-24T07:09:42.833Z,100.00
2023-02-24T07:12:12.772Z,100.00
2023-02-24T07:14:40.714Z,100.00
2023-02-24T07:17:08.899Z,100.00
2023-02-24T07:19:36.920Z,100.00
2023-02-24T07:22:04.201Z,100.00
2023-02-24T07:24:39.421Z,100.00
2023-02-24T07:27:13.219Z,100.00
2023-02-24T07:29:40.640Z,100.00
2023-02-24T07:32:10.641Z,100.00
2023-02-24T07:34:41.098Z,100.00
2023-02-24T07:37:10.223Z,100.00
2023-02-24T07:39:39.599Z,100.00
2023-02-24T07:42:09.679Z,100.00
2023-02-24T07:44:49.121Z,100.00
2023-02-24T07:47:16.895Z,100.00
2023-02-24T07:49:45.625Z,100.00
2023-02-24T07:52:13.455Z,100.00
2023-02-24T07:54:40.784Z,100.00
2023-02-24T07:57:14.408Z,100.00
2023-02-24T07:59:47.608Z,100.00
2023-02-24T08:02:16.304Z,100.00
2023-02-24T08:04:50.430Z,100.00
2023-02-24T08:07:24.763Z,100.00
2023-02-24T08:10:14.342Z,100.00
2023-02-24T08:12:43.168Z,100.00
2023-02-24T08:15:18.251Z,100.00
2023-02-24T08:17:47.574Z,100.00
2023-02-24T08:20:15.244Z,100.00
2023-02-24T08:22:46.907Z,100.00
2023-02-24T08:25:19.238Z,100.00
2023-02-24T08:28:07.423Z,100.00
2023-02-24T08:30:40.070Z,100.00
2023-02-24T08:33:16.008Z,100.00
2023-02-24T08:35:46.812Z,100.00
2023-02-24T08:38:18.144Z,100.00
2023-02-24T08:40:55.147Z,100.00
2023-02-24T08:43:33.252Z,100.00
2023-02-24T08:46:21.301Z,100.00
2023-02-24T08:49:02.140Z,100.00
2023-02-24T08:51:35.479Z,100.00
2023-02-24T08:54:11.673Z,100.00
2023-02-24T08:57:00.177Z,100.00
2023-02-24T08:59:48.488Z,100.00
2023-02-24T09:02:27.253Z,100.00
2023-02-24T09:04:59.907Z,100.00
2023-02-24T09:07:35.701Z,100.00
2023-02-24T09:10:11.663Z,100.00
2023-02-24T09:12:42.004Z,100.00
2023-02-24T09:15:12.347Z,100.00
2023-02-24T09:17:47.526Z,100.00
2023-02-24T09:20:26.039Z,100.00
2023-02-24T09:23:08.833Z,100.00
2023-02-24T09:25:44.596Z,100.00
2023-02-24T09:28:20.586Z,100.00
2023-02-24T09:30:54.649Z,100.00
2023-02-24T09:33:42.099Z,100.00
2023-02-24T09:36:20.409Z,100.00
2023-02-24T09:39:01.037Z,100.00
2023-02-24T09:41:54.659Z,100.00
2023-02-24T09:44:45.922Z,100.00
2023-02-24T09:47:54.862Z,100.00
2023-02-24T09:51:01.434Z,100.00
2023-02-24T09:53:29.520Z,100.00
2023-02-24T09:56:22.157Z,100.00
2023-02-24T09:59:11.659Z,100.00
2023-02-24T10:02:04.870Z,100.00
2023-02-24T10:04:36.303Z,100.00
2023-02-24T10:07:30.405Z,100.00
2023-02-24T10:10:28.217Z,100.00
2023-02-24T10:13:15.068Z,100.00
2023-02-24T10:15:58.333Z,100.00
2023-02-24T10:19:01.409Z,100.00
2023-02-24T10:21:49.814Z,100.00
2023-02-24T10:24:37.613Z,100.00
2023-02-24T10:27:26.773Z,100.00
2023-02-24T10:30:19.883Z,100.00
2023-02-24T10:33:00.499Z,100.00
2023-02-24T10:35:33.906Z,100.00
2023-02-24T10:38:05.892Z,100.00
2023-02-24T10:40:46.674Z,100.00
2023-02-24T10:43:30.057Z,100.00
2023-02-24T10:46:17.467Z,100.00
2023-02-24T10:49:03.163Z,100.00
2023-02-24T10:59:24.886Z,100.00
2023-02-24T11:02:33.033Z,100.00
2023-02-24T11:05:38.689Z,100.00
2023-02-24T11:08:38.041Z,100.00
2023-02-24T11:11:54.243Z,100.00
2023-02-24T11:14:40.231Z,100.00
2023-02-24T11:17:27.126Z,100.00
2023-02-24T11:20:47.745Z,100.00
2023-02-24T11:23:30.598Z,100.00
2023-02-24T11:26:17.014Z,100.00
2023-02-24T11:29:03.979Z,100.00
2023-02-24T11:32:11.617Z,100.00
2023-02-24T11:34:50.574Z,100.00
2023-02-24T11:37:38.182Z,100.00
2023-02-24T11:40:23.887Z,100.00
2023-02-24T11:43:03.294Z,100.00
2023-02-24T11:45:48.455Z,100.00
2023-02-24T11:48:35.736Z,100.00
2023-02-24T11:51:21.320Z,100.00
2023-02-24T11:54:05.110Z,100.00
2023-02-24T11:56:40.050Z,100.00
2023-02-24T11:59:45.568Z,100.00
2023-02-24T12:03:13.139Z,100.00
2023-02-24T12:05:47.486Z,100.00
2023-02-24T12:08:40.779Z,100.00
2023-02-24T12:11:46.765Z,100.00
2023-02-24T12:14:38.384Z,100.00
2023-02-24T12:17:30.051Z,100.00
2023-02-24T12:20:20.077Z,100.00
2023-02-24T12:23:15.925Z,100.00
2023-02-24T12:26:14.035Z,100.00
2023-02-24T12:29:09.564Z,100.00
2023-02-24T12:32:01.813Z,100.00
2023-02-24T12:35:07.169Z,100.00
2023-02-24T12:37:42.031Z,100.00
2023-02-24T12:40:36.913Z,100.00
2023-02-24T12:43:14.471Z,100.00
2023-02-24T12:45:53.932Z,100.00
2023-02-24T12:49:12.967Z,100.00
2023-02-24T12:52:34.425Z,96.86
2023-02-24T12:55:22.328Z,82.65
2023-02-24T12:58:16.764Z,82.87
2023-02-24T13:01:21.750Z,75.49
2023-02-24T13:04:08.008Z,79.25
2023-02-24T13:07:21.312Z,80.99
2023-02-24T13:10:21.589Z,87.00
2023-02-24T13:13:10.960Z,88.58
2023-02-24T13:15:49.877Z,93.01
2023-02-24T13:18:32.831Z,95.66
2023-02-24T13:21:14.697Z,93.05
2023-02-24T13:23:52.528Z,95.53
2023-02-24T13:26:25.206Z,94.19
2023-02-24T13:29:14.365Z,95.62
2023-02-24T13:31:51.231Z,99.78
2023-02-24T13:34:45.169Z,99.77
2023-02-24T13:37:12.575Z,100.00
2023-02-24T13:39:47.279Z,98.17
2023-02-24T13:42:27.911Z,94.43
2023-02-24T13:45:10.804Z,92.14
2023-02-24T13:48:15.026Z,90.58
2023-02-24T13:51:30.367Z,94.09
2023-02-24T13:54:03.128Z,97.64
2023-02-24T13:57:18.711Z,98.46
2023-02-24T14:00:10.095Z,98.08
2023-02-24T14:02:44.343Z,97.26
2023-02-24T14:05:35.839Z,98.67
2023-02-24T14:08:05.041Z,99.97
2023-02-24T14:10:36.283Z,100.00
2023-02-24T14:13:17.589Z,100.00
2023-02-24T14:15:47.125Z,100.00
2023-02-24T14:18:28.158Z,100.00
2023-02-24T14:20:58.476Z,100.00
2023-02-24T14:23:34.081Z,100.00
2023-02-24T14:26:13.884Z,100.00
2023-02-24T14:28:42.575Z,100.00
2023-02-24T14:31:13.873Z,100.00
2023-02-24T14:33:45.318Z,100.00
2023-02-24T14:36:25.398Z,100.00
2023-02-24T14:39:16.693Z,100.00
2023-02-24T14:41:45.411Z,100.00
2023-02-24T14:44:25.239Z,100.00
2023-02-24T14:46:59.255Z,100.00
2023-02-24T14:49:35.575Z,100.00
2023-02-24T14:52:30.405Z,100.00
2023-02-24T14:55:17.990Z,100.00
2023-02-24T14:57:56.810Z,100.00
2023-02-24T15:00:31.562Z,100.00
2023-02-24T15:03:18.905Z,100.00
2023-02-24T15:05:51.334Z,100.00
2023-02-24T15:08:34.536Z,100.00
2023-02-24T15:23:03.234Z,100.00
2023-02-24T15:25:44.806Z,100.00
2023-02-24T15:28:34.675Z,100.00
2023-02-24T15:31:19.920Z,100.00
2023-02-24T15:34:02.332Z,100.00
2023-02-24T15:36:34.333Z,100.00
2023-02-24T15:39:15.759Z,100.00
2023-02-24T15:41:47.026Z,100.00
2023-02-24T15:44:34.872Z,100.00
2023-02-24T15:47:32.801Z,100.00
2023-02-24T15:50:00.239Z,100.00
2023-02-24T15:52:29.808Z,100.00
2023-02-24T15:54:59.516Z,100.00
2023-02-24T15:57:29.076Z,100.00
2023-02-24T15:59:56.832Z,100.00
2023-02-24T16:02:24.534Z,100.00
2023-02-24T16:04:52.890Z,100.00
2023-02-24T16:07:28.505Z,100.00
2023-02-24T16:09:56.567Z,100.00
2023-02-24T16:12:35.153Z,100.00
2023-02-24T16:15:06.958Z,100.00
2023-02-24T16:17:41.992Z,100.00
2023-02-24T16:20:19.238Z,100.00
2023-02-24T16:22:46.569Z,100.00
2023-02-24T16:25:17.002Z,100.00
2023-02-24T16:27:44.385Z,100.00
2023-02-24T16:30:22.745Z,100.00
2023-02-24T16:32:50.770Z,100.00
2023-02-24T16:35:18.397Z,100.00
2023-02-24T16:37:47.853Z,100.00
2023-02-24T16:40:31.137Z,100.00
2023-02-24T16:42:58.449Z,100.00
2023-02-24T16:45:30.642Z,100.00
2023-02-24T16:48:02.563Z,100.00
2023-02-24T16:50:39.459Z,100.00
2023-02-24T16:53:08.635Z,100.00
2023-02-24T16:55:35.891Z,100.00
2023-02-24T16:58:03.225Z,100.00
2023-02-24T17:00:30.972Z,100.00
2023-02-24T17:02:59.551Z,100.00
2023-02-24T17:05:28.965Z,100.00
2023-02-24T17:07:58.087Z,100.00
2023-02-24T17:10:25.964Z,100.00
2023-02-24T17:12:53.255Z,100.00
2023-02-24T17:15:24.033Z,100.00
2023-02-24T17:17:51.271Z,100.00
2023-02-24T17:20:20.734Z,100.00
2023-02-24T17:22:48.120Z,100.00
2023-02-24T17:25:23.401Z,100.00
2023-02-24T17:27:51.741Z,100.00
2023-02-24T17:30:23.882Z,100.00
2023-02-24T17:32:51.596Z,100.00
2023-02-24T17:35:19.110Z,100.00
2023-02-24T17:37:46.477Z,100.00
2023-02-24T17:40:15.061Z,100.00
2023-02-24T17:42:42.784Z,100.00
2023-02-24T17:45:12.540Z,100.00
2023-02-24T17:47:40.685Z,100.00
2023-02-24T17:50:12.424Z,100.00
2023-02-24T17:52:40.105Z,100.00
2023-02-24T17:55:08.445Z,100.00
2023-02-24T17:57:36.717Z,100.00
2023-02-24T18:00:05.888Z,100.00
2023-02-24T18:02:39.940Z,100.00
2023-02-24T18:05:08.498Z,100.00
2023-02-24T18:07:36.326Z,100.00
2023-02-24T18:10:05.265Z,100.00
2023-02-24T18:12:32.569Z,100.00
2023-02-24T18:15:08.395Z,100.00
2023-02-24T18:17:38.773Z,100.00
2023-02-24T18:20:08.506Z,100.00
2023-02-24T18:22:36.525Z,100.00
2023-02-24T18:25:05.316Z,100.00
2023-02-24T18:27:32.605Z,100.00
2023-02-24T18:30:00.005Z,100.00
2023-02-24T18:32:27.585Z,100.00
2023-02-24T18:34:55.536Z,100.00
2023-02-24T18:37:22.939Z,100.00
2023-02-24T18:39:53.432Z,100.00
2023-02-24T18:42:21.079Z,100.00
2023-02-24T18:44:48.552Z,100.00
2023-02-24T18:47:15.852Z,100.00
2023-02-24T18:49:43.167Z,100.00
2023-02-24T18:52:11.876Z,100.00
2023-02-24T18:54:39.444Z,100.00
2023-02-24T18:57:07.434Z,100.00
2023-02-24T18:59:34.826Z,100.00
2023-02-24T19:02:02.374Z,100.00
2023-02-24T19:04:29.971Z,100.00
2023-02-24T19:06:58.330Z,100.00
2023-02-24T19:09:25.919Z,100.00
2023-02-24T19:11:54.294Z,100.00
2023-02-24T19:14:22.538Z,100.00
2023-02-24T19:16:50.056Z,100.00
2023-02-24T19:19:17.664Z,100.00
2023-02-24T19:21:45.647Z,100.00
2023-02-24T19:24:14.171Z,100.00
2023-02-24T19:26:45.943Z,100.00
2023-02-24T19:29:14.161Z,100.00
2023-02-24T19:31:41.686Z,100.00
2023-02-24T19:34:13.005Z,100.00
2023-02-24T19:36:41.366Z,100.00
2023-02-24T19:39:15.760Z,100.00
2023-02-24T19:41:43.552Z,100.00
2023-02-24T19:44:11.206Z,100.00
2023-02-24T19:46:40.590Z,100.00
2023-02-24T19:49:08.152Z,100.00
2023-02-24T19:51:35.547Z,100.00
2023-02-24T19:54:05.885Z,100.00
2023-02-24T19:56:36.807Z,100.00
2023-02-24T19:59:06.656Z,100.00
2023-02-24T20:01:34.387Z,100.00
2023-02-24T20:04:04.167Z,100.00
2023-02-24T20:06:38.843Z,100.00
2023-02-24T20:09:15.690Z,100.00
2023-02-24T20:11:45.427Z,100.00
2023-02-24T20:14:14.383Z,100.00
2023-02-24T20:16:43.276Z,100.00
2023-02-24T20:19:12.159Z,100.00
2023-02-24T20:21:40.205Z,100.00
2023-02-24T20:24:13.567Z,100.00
2023-02-24T20:26:46.274Z,100.00
2023-02-24T20:29:15.842Z,100.00
2023-02-24T20:31:46.529Z,100.00
2023-02-24T20:34:16.683Z,100.00
2023-02-24T20:36:44.100Z,100.00
2023-02-24T20:39:14.366Z,100.00
2023-02-24T20:41:41.893Z,100.00
2023-02-24T20:44:10.598Z,100.00
2023-02-24T20:46:38.529Z,100.00
2023-02-24T20:49:09.451Z,100.00
2023-02-24T20:51:38.304Z,100.00
2023-02-24T20:54:07.725Z,100.00
2023-02-24T20:56:38.140Z,100.00
2023-02-24T20:59:14.094Z,100.00
2023-02-24T21:01:42.157Z,100.00
2023-02-24T21:04:10.751Z,100.00
2023-02-24T21:06:38.360Z,100.00
2023-02-24T21:09:06.735Z,100.00
2023-02-24T21:11:34.384Z,100.00
2023-02-24T21:14:01.841Z,100.00
2023-02-24T21:16:29.277Z,100.00
2023-02-24T21:18:58.819Z,100.00
2023-02-24T21:21:26.887Z,100.00
2023-02-24T21:23:54.193Z,100.00
2023-02-24T21:26:21.795Z,100.00
2023-02-24T21:28:53.758Z,100.00
2023-02-24T21:31:22.366Z,100.00
2023-02-24T21:33:54.518Z,100.00
2023-02-24T21:36:24.393Z,100.00
2023-02-24T21:38:53.088Z,100.00
2023-02-24T21:41:20.798Z,100.00
2023-02-24T21:43:51.266Z,100.00
2023-02-24T21:46:19.041Z,100.00
2023-02-24T21:48:46.456Z,100.00
2023-02-24T21:51:14.453Z,100.00
2023-02-24T21:53:44.516Z,100.00
2023-02-24T21:56:16.939Z,100.00
2023-02-24T21:58:51.074Z,100.00
2023-02-24T22:01:23.046Z,100.00
2023-02-24T22:03:54.458Z,100.00
2023-02-24T22:06:23.050Z,100.00
2023-02-24T22:08:50.505Z,100.00
2023-02-24T22:11:19.070Z,100.00
2023-02-24T22:13:47.261Z,100.00
2023-02-24T22:16:19.156Z,100.00
2023-02-24T22:18:49.909Z,100.00
2023-02-24T22:21:19.778Z,100.00
2023-02-24T22:23:50.844Z,100.00
2023-02-24T22:26:19.772Z,100.00
2023-02-24T22:28:48.131Z,100.00
2023-02-24T22:31:19.393Z,100.00
2023-02-24T22:33:46.978Z,100.00
2023-02-24T22:36:18.565Z,100.00
2023-02-24T22:38:46.135Z,100.00
2023-02-24T22:41:17.979Z,100.00
2023-02-24T22:43:46.125Z,100.00
2023-02-24T22:46:17.062Z,100.00
2023-02-24T22:48:44.837Z,100.00
2023-02-24T22:51:14.003Z,100.00
2023-02-24T22:53:44.955Z,100.00
2023-02-24T22:56:14.753Z,100.00
2023-02-24T22:58:43.542Z,100.00
2023-02-24T23:01:23.509Z,100.00
2023-02-24T23:03:51.205Z,100.00
2023-02-24T23:06:22.506Z,100.00
2023-02-24T23:08:51.727Z,100.00
2023-02-24T23:11:29.975Z,100.00
2023-02-24T23:14:01.598Z,100.00
2023-02-24T23:16:33.035Z,100.00
2023-02-24T23:19:07.493Z,100.00
2023-02-24T23:21:41.997Z,100.00
2023-02-24T23:24:11.489Z,100.00
2023-02-24T23:26:42.415Z,100.00
2023-02-24T23:29:13.143Z,100.00
2023-02-24T23:31:40.813Z,100.00
2023-02-24T23:34:08.622Z,100.00
2023-02-24T23:36:39.145Z,100.00
2023-02-24T23:39:09.058Z,100.00
2023-02-24T23:41:37.644Z,100.00
2023-02-24T23:44:06.218Z,100.00
2023-02-24T23:46:35.260Z,100.00
2023-02-24T23:49:02.695Z,100.00
2023-02-24T23:51:45.695Z,100.00
2023-02-24T23:54:16.227Z,100.00
2023-02-24T23:56:43.399Z,100.00
2023-02-24T23:59:11.924Z,100.00
